Time,TemperatureF,DewpointF,PressureIn,WindDirection,WindDirectionDegrees,WindSpeedMPH,WindSpeedGustMPH,Humidity,HourlyPrecipIn,Conditions,Clouds,dailyrainin,SoftwareType,DateUTC
2013-09-27 07:01:00,42.2,39.2,29.84,NNW,338,0.0,0.0,89,0.00,,,0.00,WUHU216HW,2013-09-27 05:01:00,
2013-09-27 07:06:00,42.4,39.4,29.84,NW,315,3.1,3.1,89,0.00,,,0.00,WUHU216HW,2013-09-27 05:06:00,
2013-09-27 07:11:00,42.6,39.6,29.85,North,0,0.0,3.1,89,0.00,,,0.00,WUHU216HW,2013-09-27 05:11:00,
2013-09-27 07:16:00,42.6,39.6,29.85,NNE,23,0.0,2.2,89,0.00,,,0.00,WUHU216HW,2013-09-27 05:16:00,
2013-09-27 07:21:00,42.6,39.6,29.85,NNE,23,0.0,0.0,89,0.00,,,0.00,WUHU216HW,2013-09-27 05:21:00,
2013-09-27 07:26:00,42.6,39.6,29.85,North,0,0.0,0.0,89,0.00,,,0.00,WUHU216HW,2013-09-27 05:26:00,
2013-09-27 07:31:00,42.9,39.9,29.85,East,90,0.0,0.0,89,0.00,,,0.00,WUHU216HW,2013-09-27 05:31:00,
2013-09-27 07:36:00,42.9,39.9,29.85,ESE,113,0.0,0.0,89,0.00,,,0.00,WUHU216HW,2013-09-27 05:36:00,
2013-09-27 07:41:00,43.5,40.5,29.85,SSE,158,0.0,0.0,89,0.00,,,0.00,WUHU216HW,2013-09-27 05:41:00,
2013-09-27 07:46:00,43.8,41.1,29.86,South,180,0.0,0.0,90,0.00,,,0.00,WUHU216HW,2013-09-27 05:46:00,
2013-09-27 07:51:00,44.4,41.7,29.86,North,0,0.0,0.0,90,0.00,,,0.00,WUHU216HW,2013-09-27 05:51:00,
2013-09-27 07:57:00,45.1,42.4,29.86,West,270,1.7,4.0,90,0.00,,,0.00,WUHU216HW,2013-09-27 05:57:00,
2013-09-27 08:02:00,46.0,43.0,29.86,NNE,23,0.0,4.0,89,0.00,,,0.00,WUHU216HW,2013-09-27 06:02:00,
2013-09-27 08:07:00,46.2,43.2,29.86,North,0,0.0,1.3,89,0.00,,,0.00,WUHU216HW,2013-09-27 06:07:00,
2013-09-27 08:12:00,46.5,43.5,29.86,NNE,23,0.0,2.6,89,0.00,,,0.00,WUHU216HW,2013-09-27 06:12:00,
2013-09-27 08:17:00,46.9,43.9,29.86,ENE,68,3.5,3.5,89,0.00,,,0.00,WUHU216HW,2013-09-27 06:17:00,
2013-09-27 08:22:00,47.1,44.0,29.86,SSE,158,0.0,3.5,89,0.00,,,0.00,WUHU216HW,2013-09-27 06:22:00,
2013-09-27 08:27:00,47.1,44.0,29.87,East,90,0.0,3.1,89,0.00,,,0.00,WUHU216HW,2013-09-27 06:27:00,
2013-09-27 08:32:00,47.1,44.0,29.87,SE,135,0.0,3.1,89,0.00,,,0.00,WUHU216HW,2013-09-27 06:32:00,
2013-09-27 08:37:00,47.1,44.0,29.89,East,90,0.0,2.4,89,0.00,,,0.00,WUHU216HW,2013-09-27 06:37:00,
2013-09-27 08:42:00,47.1,44.0,29.89,East,90,0.0,2.2,89,0.00,,,0.00,WUHU216HW,2013-09-27 06:42:00,
2013-09-27 08:47:00,47.3,44.2,29.89,ESE,113,1.7,2.4,89,0.00,,,0.00,WUHU216HW,2013-09-27 06:47:00,
2013-09-27 08:52:00,47.6,44.6,29.89,SE,135,0.0,2.4,89,0.00,,,0.00,WUHU216HW,2013-09-27 06:52:00,
2013-09-27 08:57:00,48.0,44.9,29.89,East,90,0.8,3.5,89,0.00,,,0.00,WUHU216HW,2013-09-27 06:57:00,
2013-09-27 09:02:00,48.3,45.1,29.89,ENE,68,0.0,3.5,88,0.00,,,0.00,WUHU216HW,2013-09-27 07:02:00,
2013-09-27 09:07:00,48.7,45.3,29.89,ESE,113,3.3,3.3,88,0.00,,,0.00,WUHU216HW,2013-09-27 07:07:00,
2013-09-27 09:12:00,49.2,45.8,29.89,ESE,113,0.0,3.3,88,0.00,,,0.00,WUHU216HW,2013-09-27 07:12:00,
2013-09-27 09:17:00,50.0,46.3,29.89,ESE,113,0.0,3.3,88,0.00,,,0.00,WUHU216HW,2013-09-27 07:17:00,
2013-09-27 09:22:00,50.5,46.7,29.89,ESE,113,0.0,3.3,87,0.00,,,0.00,WUHU216HW,2013-09-27 07:22:00,
2013-09-27 09:27:00,51.0,46.9,29.89,East,90,2.4,3.1,86,0.00,,,0.00,WUHU216HW,2013-09-27 07:27:00,
2013-09-27 09:32:00,51.8,47.6,29.89,East,90,1.5,2.4,86,0.00,,,0.00,WUHU216HW,2013-09-27 07:32:00,
2013-09-27 09:37:00,52.8,48.4,29.89,SSE,158,0.0,3.5,85,0.00,,,0.00,WUHU216HW,2013-09-27 07:37:00,
2013-09-27 09:42:00,53.7,49.0,29.89,ESE,113,2.0,5.3,84,0.00,,,0.00,WUHU216HW,2013-09-27 07:42:00,
2013-09-27 09:47:00,53.9,48.5,29.89,East,90,3.1,5.3,82,0.00,,,0.00,WUHU216HW,2013-09-27 07:47:00,
2013-09-27 09:49:00,53.9,48.5,29.89,ENE,68,2.2,5.3,82,0.00,,,0.00,WUHU216HW,2013-09-27 07:49:00,
2013-09-27 09:54:00,54.3,48.6,29.89,North,0,0.0,4.2,81,0.00,,,0.00,WUHU216HW,2013-09-27 07:54:00,
2013-09-27 09:59:00,54.5,48.4,29.89,NNE,23,0.0,2.2,80,0.00,,,0.00,WUHU216HW,2013-09-27 07:59:00,
2013-09-27 10:04:00,55.2,49.1,29.89,WSW,248,0.0,1.3,80,0.00,,,0.00,WUHU216HW,2013-09-27 08:04:00,
2013-09-27 10:09:00,55.9,49.4,29.90,ESE,113,0.0,5.3,79,0.00,,,0.00,WUHU216HW,2013-09-27 08:09:00,
2013-09-27 10:14:00,56.4,50.0,29.90,ESE,113,3.3,5.3,79,0.00,,,0.00,WUHU216HW,2013-09-27 08:14:00,
2013-09-27 10:19:00,56.4,49.2,29.90,ESE,113,3.3,3.3,77,0.00,,,0.00,WUHU216HW,2013-09-27 08:19:00,
2013-09-27 10:24:00,55.7,48.9,29.90,SSE,158,0.0,3.3,78,0.00,,,0.00,WUHU216HW,2013-09-27 08:24:00,
2013-09-27 10:29:00,56.1,49.2,29.90,SE,135,0.8,2.2,78,0.00,,,0.00,WUHU216HW,2013-09-27 08:29:00,
2013-09-27 10:36:00,56.1,49.2,29.90,East,90,1.1,2.2,78,0.00,,,0.00,WUHU216HW,2013-09-27 08:36:00,
2013-09-27 10:41:00,56.8,49.6,29.91,ESE,113,2.9,4.9,77,0.00,,,0.00,WUHU216HW,2013-09-27 08:41:00,
2013-09-27 10:46:00,57.7,50.5,29.91,East,90,0.0,4.9,77,0.00,,,0.00,WUHU216HW,2013-09-27 08:46:00,
2013-09-27 10:51:00,57.5,50.0,29.90,West,270,0.0,3.3,76,0.00,,,0.00,WUHU216HW,2013-09-27 08:51:00,
2013-09-27 10:56:00,57.3,49.8,29.90,SSW,203,3.1,3.8,76,0.00,,,0.00,WUHU216HW,2013-09-27 08:56:00,
2013-09-27 11:01:00,57.0,49.4,29.90,ESE,113,0.0,3.8,76,0.00,,,0.00,WUHU216HW,2013-09-27 09:01:00,
2013-09-27 11:06:00,57.0,49.4,29.90,South,180,3.5,3.5,76,0.00,,,0.00,WUHU216HW,2013-09-27 09:06:00,
2013-09-27 11:11:00,57.0,49.4,29.91,SE,135,0.0,4.6,76,0.00,,,0.00,WUHU216HW,2013-09-27 09:11:00,
2013-09-27 11:16:00,57.3,49.8,29.91,SE,135,0.8,6.4,76,0.00,,,0.00,WUHU216HW,2013-09-27 09:16:00,
2013-09-27 11:21:00,57.0,49.1,29.90,South,180,0.0,6.4,75,0.00,,,0.00,WUHU216HW,2013-09-27 09:21:00,
2013-09-27 11:26:00,56.6,48.9,29.90,South,180,0.8,4.6,75,0.00,,,0.00,WUHU216HW,2013-09-27 09:26:00,
2013-09-27 11:31:00,56.8,48.9,29.90,North,0,0.0,3.8,75,0.00,,,0.00,WUHU216HW,2013-09-27 09:31:00,
2013-09-27 11:36:00,58.1,49.8,29.90,SE,135,1.3,4.9,74,0.00,,,0.00,WUHU216HW,2013-09-27 09:36:00,
2013-09-27 11:41:00,58.2,50.0,29.90,SE,135,2.6,4.9,74,0.00,,,0.00,WUHU216HW,2013-09-27 09:41:00,
2013-09-27 11:46:00,58.2,50.0,29.90,ESE,113,2.4,3.5,74,0.00,,,0.00,WUHU216HW,2013-09-27 09:46:00,
2013-09-27 11:51:00,57.7,49.1,29.90,ESE,113,1.1,3.5,73,0.00,,,0.00,WUHU216HW,2013-09-27 09:51:00,
2013-09-27 11:56:00,56.8,48.2,29.90,ESE,113,0.8,3.1,73,0.00,,,0.00,WUHU216HW,2013-09-27 09:56:00,
2013-09-27 12:01:00,56.3,47.7,29.90,ESE,113,3.3,3.8,73,0.00,,,0.00,WUHU216HW,2013-09-27 10:01:00,
2013-09-27 12:06:00,56.1,47.8,29.89,ESE,113,4.2,6.9,74,0.00,,,0.00,WUHU216HW,2013-09-27 10:06:00,
2013-09-27 12:11:00,56.4,48.2,29.89,ESE,113,4.0,6.9,74,0.00,,,0.00,WUHU216HW,2013-09-27 10:11:00,
2013-09-27 12:16:00,57.0,48.5,29.90,SSE,158,2.9,6.7,74,0.00,,,0.00,WUHU216HW,2013-09-27 10:16:00,
2013-09-27 12:21:00,56.8,48.5,29.89,South,180,1.5,6.7,74,0.00,,,0.00,WUHU216HW,2013-09-27 10:21:00,
2013-09-27 12:26:00,56.8,48.5,29.89,SE,135,0.0,6.7,74,0.00,,,0.00,WUHU216HW,2013-09-27 10:26:00,
2013-09-27 12:31:00,56.4,48.2,29.89,ESE,113,1.1,3.5,74,0.00,,,0.00,WUHU216HW,2013-09-27 10:31:00,
2013-09-27 12:36:00,56.6,48.5,29.89,South,180,2.0,5.5,74,0.00,,,0.00,WUHU216HW,2013-09-27 10:36:00,
2013-09-27 12:41:00,56.8,48.5,29.89,East,90,0.0,5.5,74,0.00,,,0.00,WUHU216HW,2013-09-27 10:41:00,
2013-09-27 12:46:00,57.0,48.7,29.89,ESE,113,3.8,3.8,74,0.00,,,0.00,WUHU216HW,2013-09-27 10:46:00,
2013-09-27 12:51:00,57.0,48.7,29.89,SSE,158,0.8,3.8,74,0.00,,,0.00,WUHU216HW,2013-09-27 10:51:00,
2013-09-27 12:56:00,56.8,48.3,29.89,ESE,113,0.0,6.4,73,0.00,,,0.00,WUHU216HW,2013-09-27 10:56:00,
2013-09-27 13:01:00,56.4,47.8,29.89,SE,135,1.5,6.4,73,0.00,,,0.00,WUHU216HW,2013-09-27 11:01:00,
2013-09-27 13:06:00,56.1,47.5,29.88,ESE,113,1.7,6.9,73,0.00,,,0.00,WUHU216HW,2013-09-27 11:06:00,
2013-09-27 13:11:00,55.9,47.7,29.88,South,180,0.0,6.9,74,0.00,,,0.00,WUHU216HW,2013-09-27 11:11:00,
2013-09-27 13:16:00,55.9,47.7,29.88,SE,135,0.0,1.3,74,0.00,,,0.00,WUHU216HW,2013-09-27 11:16:00,
2013-09-27 13:21:00,55.7,47.9,29.88,ESE,113,4.0,6.0,74,0.00,,,0.00,WUHU216HW,2013-09-27 11:21:00,
2013-09-27 13:26:00,55.5,47.3,29.88,SSE,158,0.6,6.0,74,0.00,,,0.00,WUHU216HW,2013-09-27 11:26:00,
2013-09-27 13:31:00,55.5,47.3,29.88,WSW,248,0.0,4.4,74,0.00,,,0.00,WUHU216HW,2013-09-27 11:31:00,
2013-09-27 13:36:00,55.9,48.0,29.88,ESE,113,2.4,5.3,75,0.00,,,0.00,WUHU216HW,2013-09-27 11:36:00,
2013-09-27 13:41:00,56.3,48.0,29.88,SSW,203,3.5,5.3,74,0.00,,,0.00,WUHU216HW,2013-09-27 11:41:00,
2013-09-27 13:46:00,56.8,48.2,29.87,SE,135,0.8,5.3,73,0.00,,,0.00,WUHU216HW,2013-09-27 11:46:00,
2013-09-27 13:51:00,57.0,48.7,29.88,ESE,113,8.2,8.2,74,0.00,,,0.00,WUHU216HW,2013-09-27 11:51:00,
2013-09-27 13:56:00,57.0,48.3,29.87,East,90,0.0,8.2,73,0.00,,,0.00,WUHU216HW,2013-09-27 11:56:00,
2013-09-27 14:01:00,57.3,48.7,29.87,SSE,158,0.0,4.6,73,0.00,,,0.00,WUHU216HW,2013-09-27 12:01:00,
2013-09-27 14:06:00,57.0,48.3,29.87,NE,45,0.0,4.6,73,0.00,,,0.00,WUHU216HW,2013-09-27 12:06:00,
2013-09-27 14:11:00,56.8,47.8,29.88,SSE,158,0.0,4.4,72,0.00,,,0.00,WUHU216HW,2013-09-27 12:11:00,
2013-09-27 14:16:00,56.8,47.8,29.87,SSE,158,1.5,3.1,72,0.00,,,0.00,WUHU216HW,2013-09-27 12:16:00,
2013-09-27 14:21:00,56.8,47.8,29.87,SSE,158,0.0,7.3,72,0.00,,,0.00,WUHU216HW,2013-09-27 12:21:00,
2013-09-27 14:26:00,57.3,48.3,29.87,SW,225,0.0,7.3,72,0.00,,,0.00,WUHU216HW,2013-09-27 12:26:00,
2013-09-27 14:31:00,57.7,48.3,29.87,South,180,0.0,6.4,71,0.00,,,0.00,WUHU216HW,2013-09-27 12:31:00,
2013-09-27 14:36:00,60.0,50.7,29.87,South,180,0.0,5.1,71,0.00,,,0.00,WUHU216HW,2013-09-27 12:36:00,
2013-09-27 14:41:00,61.1,50.5,29.87,ESE,113,3.1,6.9,68,0.00,,,0.00,WUHU216HW,2013-09-27 12:41:00,
2013-09-27 14:46:00,60.6,49.8,29.86,SSE,158,5.5,6.9,67,0.00,,,0.00,WUHU216HW,2013-09-27 12:46:00,
2013-09-27 14:51:00,61.5,50.4,29.86,SE,135,0.0,5.8,67,0.00,,,0.00,WUHU216HW,2013-09-27 12:51:00,
2013-09-27 14:56:00,62.0,49.7,29.86,SSE,158,3.8,5.8,64,0.00,,,0.00,WUHU216HW,2013-09-27 12:56:00,
2013-09-27 15:01:00,63.1,51.1,29.86,East,90,3.1,6.0,65,0.00,,,0.00,WUHU216HW,2013-09-27 13:01:00,
2013-09-27 15:06:00,63.5,50.6,29.86,SSE,158,0.0,8.9,63,0.00,,,0.00,WUHU216HW,2013-09-27 13:06:00,
2013-09-27 15:11:00,63.6,50.9,29.86,South,180,1.1,8.9,63,0.00,,,0.00,WUHU216HW,2013-09-27 13:11:00,
2013-09-27 15:16:00,64.9,51.5,29.86,South,180,0.6,6.0,62,0.00,,,0.00,WUHU216HW,2013-09-27 13:16:00,
2013-09-27 15:21:00,64.9,50.7,29.86,South,180,3.3,6.0,60,0.00,,,0.00,WUHU216HW,2013-09-27 13:21:00,
2013-09-27 15:26:00,64.5,50.3,29.86,SW,225,0.0,4.4,60,0.00,,,0.00,WUHU216HW,2013-09-27 13:26:00,
2013-09-27 15:31:00,64.2,50.0,29.86,SSE,158,0.0,4.9,60,0.00,,,0.00,WUHU216HW,2013-09-27 13:31:00,
2013-09-27 15:36:00,63.3,49.2,29.86,SSW,203,4.0,4.9,60,0.00,,,0.00,WUHU216HW,2013-09-27 13:36:00,
2013-09-27 15:41:00,62.7,48.7,29.86,South,180,4.4,4.9,60,0.00,,,0.00,WUHU216HW,2013-09-27 13:41:00,
2013-09-27 15:46:00,61.1,47.6,29.86,SE,135,0.0,5.3,61,0.00,,,0.00,WUHU216HW,2013-09-27 13:46:00,
2013-09-27 15:51:00,60.0,47.0,29.86,ESE,113,2.9,5.3,62,0.00,,,0.00,WUHU216HW,2013-09-27 13:51:00,
2013-09-27 15:56:00,59.1,46.9,29.86,SSW,203,0.0,2.9,64,0.00,,,0.00,WUHU216HW,2013-09-27 13:56:00,
2013-09-27 16:01:00,58.8,47.4,29.86,SSE,158,2.6,2.9,66,0.00,,,0.00,WUHU216HW,2013-09-27 14:01:00,
2013-09-27 16:06:00,58.2,46.9,29.86,SSE,158,4.2,4.2,66,0.00,,,0.00,WUHU216HW,2013-09-27 14:06:00,
2013-09-27 16:11:00,57.9,46.9,29.85,ESE,113,2.9,4.2,67,0.00,,,0.00,WUHU216HW,2013-09-27 14:11:00,
2013-09-27 16:16:00,57.5,46.8,29.85,SSE,158,2.4,3.3,67,0.00,,,0.00,WUHU216HW,2013-09-27 14:16:00,
2013-09-27 16:21:00,57.2,46.6,29.86,SSE,158,0.8,2.4,68,0.00,,,0.00,WUHU216HW,2013-09-27 14:21:00,
2013-09-27 16:26:00,56.8,46.3,29.86,SSE,158,2.6,2.6,68,0.00,,,0.00,WUHU216HW,2013-09-27 14:26:00,
2013-09-27 16:31:00,56.8,46.7,29.85,SSW,203,1.3,3.1,69,0.00,,,0.00,WUHU216HW,2013-09-27 14:31:00,
2013-09-27 16:36:00,56.4,46.8,29.85,WSW,248,0.0,3.1,70,0.00,,,0.00,WUHU216HW,2013-09-27 14:36:00,
2013-09-27 16:41:00,56.3,46.6,29.86,North,0,0.0,2.0,70,0.00,,,0.00,WUHU216HW,2013-09-27 14:41:00,
2013-09-27 16:46:00,56.1,46.5,29.85,SSE,158,0.0,2.0,70,0.00,,,0.00,WUHU216HW,2013-09-27 14:46:00,
2013-09-27 16:51:00,56.3,46.6,29.86,SSE,158,0.8,1.1,70,0.00,,,0.00,WUHU216HW,2013-09-27 14:51:00,
2013-09-27 16:56:00,56.1,46.8,29.86,ESE,113,0.0,0.8,71,0.00,,,0.00,WUHU216HW,2013-09-27 14:56:00,
2013-09-27 17:01:00,56.1,47.1,29.86,South,180,0.0,0.0,72,0.00,,,0.00,WUHU216HW,2013-09-27 15:01:00,
2013-09-27 17:06:00,55.7,46.8,29.86,SSW,203,0.0,1.5,72,0.00,,,0.00,WUHU216HW,2013-09-27 15:06:00,
2013-09-27 17:11:00,55.5,46.7,29.85,WNW,293,0.8,1.5,72,0.00,,,0.00,WUHU216HW,2013-09-27 15:11:00,
2013-09-27 17:16:00,55.2,46.3,29.86,SE,135,0.0,2.9,72,0.00,,,0.00,WUHU216HW,2013-09-27 15:16:00,
2013-09-27 17:21:00,55.2,46.3,29.86,SSW,203,0.0,2.9,72,0.00,,,0.00,WUHU216HW,2013-09-27 15:21:00,
2013-09-27 17:26:00,55.0,46.5,29.86,SW,225,0.0,1.3,73,0.00,,,0.00,WUHU216HW,2013-09-27 15:26:00,
2013-09-27 17:31:00,54.6,46.1,29.86,SE,135,0.0,1.3,73,0.00,,,0.00,WUHU216HW,2013-09-27 15:31:00,
2013-09-27 17:36:00,54.5,46.0,29.86,SW,225,0.0,4.4,73,0.00,,,0.00,WUHU216HW,2013-09-27 15:36:00,
2013-09-27 17:41:00,54.3,46.3,29.86,SW,225,0.0,4.4,74,0.00,,,0.00,WUHU216HW,2013-09-27 15:41:00,
2013-09-27 17:46:00,54.1,46.0,29.85,WNW,293,0.0,0.0,74,0.00,,,0.00,WUHU216HW,2013-09-27 15:46:00,
2013-09-27 17:51:00,53.7,46.0,29.86,West,270,0.0,0.0,75,0.00,,,0.00,WUHU216HW,2013-09-27 15:51:00,
2013-09-27 17:56:00,53.4,45.6,29.86,WNW,293,0.0,0.0,75,0.00,,,0.00,WUHU216HW,2013-09-27 15:56:00,
2013-09-27 18:01:00,52.8,45.5,29.86,WNW,293,0.0,0.0,76,0.00,,,0.00,WUHU216HW,2013-09-27 16:01:00,
2013-09-27 18:06:00,52.3,45.3,29.86,West,270,0.0,0.0,77,0.00,,,0.00,WUHU216HW,2013-09-27 16:06:00,
2013-09-27 18:11:00,51.6,44.6,29.85,West,270,0.0,0.0,77,0.00,,,0.00,WUHU216HW,2013-09-27 16:11:00,
2013-09-27 18:16:00,51.0,44.7,29.86,West,270,0.0,0.0,79,0.00,,,0.00,WUHU216HW,2013-09-27 16:16:00,
2013-09-27 18:21:00,50.5,44.2,29.86,West,270,0.0,0.0,79,0.00,,,0.00,WUHU216HW,2013-09-27 16:21:00,
2013-09-27 18:26:00,50.1,44.2,29.86,West,270,0.0,0.0,80,0.00,,,0.00,WUHU216HW,2013-09-27 16:26:00,
2013-09-27 18:31:00,49.6,43.7,29.86,West,270,0.0,0.0,80,0.00,,,0.00,WUHU216HW,2013-09-27 16:31:00,
2013-09-27 18:36:00,49.2,43.6,29.86,West,270,0.0,0.0,81,0.00,,,0.00,WUHU216HW,2013-09-27 16:36:00,
2013-09-27 18:41:00,49.2,43.6,29.86,West,270,0.0,0.0,81,0.00,,,0.00,WUHU216HW,2013-09-27 16:41:00,
2013-09-27 18:47:00,49.2,43.9,29.86,West,270,0.0,0.0,82,0.00,,,0.00,WUHU216HW,2013-09-27 16:47:00,
2013-09-27 18:52:00,49.2,43.9,29.86,West,270,0.0,0.0,82,0.00,,,0.00,WUHU216HW,2013-09-27 16:52:00,
2013-09-27 18:57:00,48.9,43.9,29.86,West,270,0.0,0.0,83,0.00,,,0.00,WUHU216HW,2013-09-27 16:57:00,
2013-09-27 19:02:00,48.7,43.7,29.85,West,270,0.0,1.3,83,0.00,,,0.00,WUHU216HW,2013-09-27 17:02:00,
2013-09-27 19:07:00,48.7,43.7,29.85,WSW,248,0.0,1.3,83,0.00,,,0.00,WUHU216HW,2013-09-27 17:07:00,
2013-09-27 19:12:00,48.3,43.7,29.86,West,270,0.0,0.0,84,0.00,,,0.00,WUHU216HW,2013-09-27 17:12:00,
2013-09-27 19:17:00,48.2,43.5,29.85,West,270,0.0,1.7,84,0.00,,,0.00,WUHU216HW,2013-09-27 17:17:00,
2013-09-27 19:22:00,48.0,43.3,29.86,West,270,0.8,1.7,84,0.00,,,0.00,WUHU216HW,2013-09-27 17:22:00,
2013-09-27 19:26:00,48.0,43.3,29.86,WNW,293,1.5,3.1,84,0.00,,,0.00,WUHU216HW,2013-09-27 17:26:00,
2013-09-27 19:31:00,48.0,43.3,29.86,WNW,293,0.0,3.1,84,0.00,,,0.00,WUHU216HW,2013-09-27 17:31:00,
2013-09-27 19:36:00,48.0,43.3,29.86,West,270,0.0,0.0,84,0.00,,,0.00,WUHU216HW,2013-09-27 17:36:00,
2013-09-27 19:41:00,47.8,43.5,29.86,WNW,293,0.0,0.0,85,0.00,,,0.00,WUHU216HW,2013-09-27 17:41:00,
2013-09-27 19:46:00,47.6,43.3,29.86,WNW,293,3.3,3.3,85,0.00,,,0.00,WUHU216HW,2013-09-27 17:46:00,
2013-09-27 19:51:00,47.6,43.3,29.86,West,270,1.1,3.3,85,0.00,,,0.00,WUHU216HW,2013-09-27 17:51:00,
2013-09-27 19:56:00,47.6,43.3,29.86,WNW,293,2.4,2.4,85,0.00,,,0.00,WUHU216HW,2013-09-27 17:56:00,
2013-09-27 20:01:00,47.8,43.5,29.85,WNW,293,3.5,3.8,85,0.00,,,0.00,WUHU216HW,2013-09-27 18:01:00,
2013-09-27 20:06:00,47.8,43.7,29.85,West,270,0.0,3.8,85,0.00,,,0.00,WUHU216HW,2013-09-27 18:06:00,
2013-09-27 20:11:00,48.0,43.7,29.85,WNW,293,3.8,4.2,85,0.00,,,0.00,WUHU216HW,2013-09-27 18:11:00,
2013-09-27 20:16:00,48.3,43.7,29.86,West,270,3.1,4.2,84,0.00,,,0.00,WUHU216HW,2013-09-27 18:16:00,
2013-09-27 20:21:00,48.5,43.8,29.85,West,270,2.4,4.0,84,0.00,,,0.00,WUHU216HW,2013-09-27 18:21:00,
2013-09-27 20:26:00,48.7,44.0,29.86,West,270,3.8,4.9,84,0.00,,,0.00,WUHU216HW,2013-09-27 18:26:00,
2013-09-27 20:31:00,48.7,43.7,29.85,West,270,3.5,4.9,83,0.00,,,0.00,WUHU216HW,2013-09-27 18:31:00,
2013-09-27 20:36:00,49.1,44.0,29.85,WNW,293,1.3,4.4,83,0.00,,,0.00,WUHU216HW,2013-09-27 18:36:00,
2013-09-27 20:41:00,48.9,43.6,29.85,WNW,293,0.0,4.4,82,0.00,,,0.00,WUHU216HW,2013-09-27 18:41:00,
2013-09-27 20:46:00,48.9,43.6,29.85,WNW,293,3.5,3.5,82,0.00,,,0.00,WUHU216HW,2013-09-27 18:46:00,
2013-09-27 20:51:00,48.7,43.4,29.86,West,270,3.1,3.8,82,0.00,,,0.00,WUHU216HW,2013-09-27 18:51:00,
2013-09-27 20:56:00,48.7,43.4,29.86,West,270,3.1,4.4,82,0.00,,,0.00,WUHU216HW,2013-09-27 18:56:00,
2013-09-27 21:01:00,48.7,43.4,29.86,WNW,293,0.0,4.4,82,0.00,,,0.00,WUHU216HW,2013-09-27 19:01:00,
2013-09-27 21:09:00,48.0,42.7,29.86,West,270,2.0,2.0,82,0.00,,,0.00,WUHU216HW,2013-09-27 19:09:00,
2013-09-27 21:14:00,47.3,42.0,29.87,WNW,293,0.8,2.4,82,0.00,,,0.00,WUHU216HW,2013-09-27 19:14:00,
2013-09-27 21:20:00,47.4,42.5,29.88,West,270,3.5,4.6,83,0.00,,,0.00,WUHU216HW,2013-09-27 19:20:00,
2013-09-27 21:25:00,48.0,43.0,29.88,West,270,4.4,6.0,83,0.00,,,0.00,WUHU216HW,2013-09-27 19:25:00,
2013-09-27 21:30:00,48.7,43.7,29.89,NNW,338,0.8,6.0,83,0.00,,,0.00,WUHU216HW,2013-09-27 19:30:00,
2013-09-27 21:35:00,48.7,43.4,29.89,West,270,0.0,4.6,82,0.00,,,0.00,WUHU216HW,2013-09-27 19:35:00,
2013-09-27 21:40:00,48.3,43.0,29.89,ESE,113,0.0,3.1,82,0.00,,,0.00,WUHU216HW,2013-09-27 19:40:00,
2013-09-27 21:45:00,47.6,42.4,29.89,ESE,113,0.0,1.7,82,0.00,,,0.00,WUHU216HW,2013-09-27 19:45:00,
2013-09-27 21:50:00,46.7,41.7,29.89,ESE,113,0.0,0.0,82,0.00,,,0.00,WUHU216HW,2013-09-27 19:50:00,
2013-09-27 21:55:00,46.2,41.3,29.89,NNW,338,0.0,0.0,83,0.00,,,0.00,WUHU216HW,2013-09-27 19:55:00,
2013-09-27 22:00:00,45.5,40.6,29.89,NNW,338,0.0,0.0,83,0.00,,,0.00,WUHU216HW,2013-09-27 20:00:00,
2013-09-27 22:05:00,44.9,40.4,29.89,ESE,113,0.0,0.0,84,0.00,,,0.00,WUHU216HW,2013-09-27 20:05:00,
2013-09-27 22:10:00,44.4,39.8,29.90,NNW,338,0.0,0.0,84,0.00,,,0.00,WUHU216HW,2013-09-27 20:10:00,
2013-09-27 22:15:00,44.2,40.0,29.89,WSW,248,0.0,0.0,85,0.00,,,0.00,WUHU216HW,2013-09-27 20:15:00,
2013-09-27 22:20:00,43.8,39.6,29.90,WNW,293,0.0,0.0,85,0.00,,,0.00,WUHU216HW,2013-09-27 20:20:00,
2013-09-27 22:25:00,43.8,39.6,29.90,WNW,293,2.4,2.4,85,0.00,,,0.00,WUHU216HW,2013-09-27 20:25:00,
2013-09-27 22:30:00,44.2,40.3,29.90,NW,315,1.5,3.1,86,0.00,,,0.00,WUHU216HW,2013-09-27 20:30:00,
2013-09-27 22:35:00,44.4,40.4,29.91,NW,315,0.0,3.1,86,0.00,,,0.00,WUHU216HW,2013-09-27 20:35:00,
2013-09-27 22:40:00,44.4,40.4,29.91,NW,315,0.0,0.0,86,0.00,,,0.00,WUHU216HW,2013-09-27 20:40:00,
2013-09-27 22:45:00,44.6,40.6,29.91,WNW,293,0.0,0.0,86,0.00,,,0.00,WUHU216HW,2013-09-27 20:45:00,
2013-09-27 22:50:00,45.1,41.5,29.90,WNW,293,0.0,0.0,87,0.00,,,0.00,WUHU216HW,2013-09-27 20:50:00,
2013-09-27 22:55:00,45.5,41.8,29.90,East,90,0.0,0.0,87,0.00,,,0.00,WUHU216HW,2013-09-27 20:55:00,
2013-09-27 23:00:00,45.6,42.0,29.90,SSE,158,0.0,0.0,87,0.00,,,0.00,WUHU216HW,2013-09-27 21:00:00,
2013-09-27 23:05:00,45.6,42.0,29.90,SSE,158,0.0,0.0,87,0.00,,,0.00,WUHU216HW,2013-09-27 21:05:00,
2013-09-27 23:10:00,45.3,41.7,29.89,NE,45,0.0,0.0,87,0.00,,,0.00,WUHU216HW,2013-09-27 21:10:00,
2013-09-27 23:15:00,45.1,41.5,29.89,ESE,113,0.0,0.0,87,0.00,,,0.00,WUHU216HW,2013-09-27 21:15:00,
2013-09-27 23:20:00,44.7,41.1,29.89,NNW,338,0.0,0.0,87,0.00,,,0.00,WUHU216HW,2013-09-27 21:20:00,
2013-09-27 23:25:00,44.4,40.8,29.89,West,270,0.0,0.0,87,0.00,,,0.00,WUHU216HW,2013-09-27 21:25:00,
2013-09-27 23:30:00,44.2,40.6,29.89,SSE,158,0.0,0.0,87,0.00,,,0.00,WUHU216HW,2013-09-27 21:30:00,
2013-09-27 23:35:00,43.8,40.2,29.89,West,270,0.0,0.0,87,0.00,,,0.00,WUHU216HW,2013-09-27 21:35:00,
2013-09-27 23:40:00,43.8,40.2,29.89,WNW,293,0.0,0.0,87,0.00,,,0.00,WUHU216HW,2013-09-27 21:40:00,
2013-09-27 23:45:00,44.0,40.7,29.89,SW,225,0.0,0.0,88,0.00,,,0.00,WUHU216HW,2013-09-27 21:45:00,
2013-09-27 23:50:00,44.2,40.9,29.89,WNW,293,0.0,0.0,88,0.00,,,0.00,WUHU216HW,2013-09-27 21:50:00,
2013-09-27 23:55:00,44.2,40.9,29.88,SSE,158,0.0,0.0,88,0.00,,,0.00,WUHU216HW,2013-09-27 21:55:00,